Date,TemperatureHighF,TemperatureAvgF,TemperatureLowF,DewpointHighF,DewpointAvgF,DewpointLowF,HumidityHigh,HumidityAvg,HumidityLow,PressureMaxIn,PressureMinIn,WindSpeedMaxMPH,WindSpeedAvgMPH,GustSpeedMaxMPH,PrecipitationSumIn
2013-1-1,36.0,33.1,30.0,36.0,32.5,30.0,100,98,92,30.38,30.26,0,0,0,0.00
2013-1-2,38.0,33.7,31.0,34.0,30.5,29.0,94,88,79,30.26,30.12,0,0,0,0.00
2013-1-3,46.0,35.6,30.0,46.0,33.4,27.0,100,91,84,30.24,30.07,2,0,7,0.00
2013-1-4,48.0,44.7,40.0,48.0,44.7,40.0,100,100,100,30.30,30.14,0,0,9,0.27
2013-1-5,44.0,39.7,37.0,44.0,39.7,37.0,100,100,100,30.17,30.12,0,0,0,0.02
2013-1-6,48.0,44.8,42.0,48.0,44.6,42.0,100,99,94,30.21,30.06,0,0,10,0.00
2013-1-7,51.0,48.2,45.0,51.0,48.2,45.0,100,100,100,30.23,30.02,2,0,11,0.00
2013-1-8,51.0,49.4,47.0,51.0,49.4,47.0,100,100,100,30.22,29.94,6,0,12,0.00
2013-1-9,50.0,41.7,36.0,50.0,41.6,36.0,100,100,96,29.98,29.73,9,1,15,0.00
2013-1-10,40.0,36.7,35.0,40.0,36.7,35.0,100,100,100,30.11,29.97,0,0,2,0.00
2013-1-11,36.0,34.6,32.0,36.0,33.8,30.0,100,97,88,30.27,30.10,0,0,0,0.00
2013-1-12,36.0,31.8,29.0,35.0,31.3,29.0,100,98,91,30.36,30.24,0,0,0,0.00
2013-1-13,30.0,28.3,26.0,30.0,28.2,26.0,100,100,97,30.43,30.35,2,0,7,0.00
2013-1-14,38.0,31.9,26.0,38.0,31.9,26.0,100,100,100,30.51,30.43,3,0,9,0.00
2013-1-15,39.0,36.2,34.0,39.0,36.2,34.0,100,100,100,30.61,30.51,0,0,2,0.13
2013-1-16,40.0,33.7,32.0,38.0,33.4,32.0,100,99,88,30.58,30.42,0,0,0,0.00
2013-1-17,41.0,35.8,30.0,38.0,34.5,30.0,100,95,84,30.42,30.26,0,0,0,0.01
2013-1-18,48.0,41.1,36.0,41.0,36.8,34.0,98,85,66,30.26,30.21,0,0,0,0.05
2013-1-19,48.0,42.4,36.0,39.0,35.7,34.0,93,78,63,30.28,30.21,6,0,11,0.01
2013-1-20,40.0,36.0,31.0,37.0,33.7,31.0,100,91,82,30.29,30.19,6,3,17,0.00
2013-1-21,42.0,35.2,28.0,37.0,32.4,28.0,100,90,73,30.21,30.09,6,2,95,0.00
2013-1-22,42.0,35.5,29.0,38.0,33.1,29.0,100,91,74,30.10,29.91,5,1,11,0.00
2013-1-23,42.0,39.0,36.0,42.0,36.6,32.0,100,92,72,30.16,29.86,2,0,8,0.06
2013-1-24,47.0,40.7,34.0,47.0,40.7,34.0,100,100,100,30.18,30.08,0,0,2,0.01
2013-1-25,51.0,46.8,40.0,51.0,46.8,40.0,100,100,100,30.12,29.96,0,0,0,0.10
2013-1-26,44.0,40.8,39.0,44.0,40.8,39.0,100,100,100,30.09,29.94,0,0,0,0.00
2013-1-27,42.0,39.7,37.0,42.0,39.7,37.0,100,100,100,30.15,30.05,0,0,0,0.01
2013-1-28,44.0,42.2,41.0,44.0,42.2,41.0,100,100,100,30.25,30.09,0,0,0,0.00
2013-1-29,47.0,44.0,43.0,47.0,44.0,43.0,100,100,100,30.50,30.25,0,0,0,0.00
2013-1-30,49.0,46.1,43.0,49.0,46.1,43.0,100,100,100,30.50,30.46,0,0,0,0.02
2013-1-31,52.0,48.2,45.0,51.0,47.8,45.0,100,99,91,30.42,30.34,0,0,0,0.02
2013-2-1,49.0,45.8,43.0,49.0,45.5,43.0,100,99,95,30.35,30.23,0,0,0,0.02
2013-2-2,53.0,47.2,43.0,49.0,45.2,41.0,100,93,84,30.31,30.22,0,0,0,0.00
2013-2-3,49.0,46.6,45.0,48.0,46.4,45.0,100,100,96,30.32,30.22,0,0,0,0.00
2013-2-4,53.0,46.1,42.0,49.0,45.6,42.0,100,98,87,30.22,29.96,0,0,0,0.01
2013-2-5,49.0,45.7,44.0,49.0,45.6,44.0,100,100,97,30.06,29.91,0,0,0,0.01
2013-2-6,47.0,44.0,39.0,47.0,44.0,39.0,100,100,100,30.09,29.84,0,0,0,0.00
2013-2-7,44.0,39.6,36.0,44.0,39.6,36.0,100,100,100,30.11,29.92,0,0,0,0.00
2013-2-8,47.0,39.9,36.0,45.0,39.5,36.0,100,98,92,30.27,30.11,0,0,0,0.00
2013-2-9,48.0,43.4,39.0,47.0,42.6,38.0,100,97,91,30.29,30.25,0,0,0,0.00
2013-2-10,47.0,43.6,41.0,46.0,43.2,41.0,100,99,92,30.32,30.28,0,0,0,0.00
2013-2-11,50.0,44.5,40.0,48.0,43.7,40.0,100,97,85,30.39,30.30,0,0,0,0.01
2013-2-12,51.0,48.0,46.0,51.0,48.0,46.0,100,100,100,30.49,30.39,0,0,0,0.00
2013-2-13,51.0,47.3,44.0,51.0,47.3,44.0,100,100,100,30.50,30.44,0,0,0,0.00
2013-2-14,54.0,47.7,42.0,52.0,46.6,42.0,100,96,85,30.55,30.45,0,0,0,0.00
2013-2-15,56.0,48.0,43.0,52.0,47.0,43.0,100,96,83,30.45,30.21,0,0,0,0.00
2013-2-16,50.0,45.2,41.0,50.0,45.2,41.0,100,100,98,30.29,30.22,0,0,0,0.00
2013-2-17,46.0,41.8,39.0,44.0,41.0,39.0,100,97,85,30.29,30.07,0,0,0,0.00
2013-2-18,47.0,41.5,38.0,45.0,41.1,38.0,100,98,89,30.06,29.71,0,0,0,0.00
2013-2-19,46.0,40.0,37.0,46.0,40.0,37.0,100,100,98,29.98,29.62,0,0,0,0.00
2013-2-20,47.0,40.7,37.0,46.0,40.6,37.0,100,100,94,30.10,29.98,0,0,0,0.00
2013-2-21,44.0,41.0,38.0,44.0,41.0,38.0,100,100,100,30.21,30.10,0,0,0,0.00
2013-2-22,46.0,43.1,38.0,46.0,43.1,38.0,100,100,100,30.19,29.92,0,0,0,0.00
2013-2-23,43.0,39.2,36.0,43.0,39.2,36.0,100,100,98,30.43,30.09,0,0,0,0.00
2013-2-24,51.0,43.9,39.0,44.0,41.0,39.0,100,91,67,30.43,30.07,0,0,0,0.00
2013-2-25,45.0,41.4,38.0,45.0,41.4,38.0,100,100,100,30.38,30.04,0,0,0,0.00
2013-2-26,48.0,40.6,36.0,46.0,40.2,36.0,100,99,91,30.38,30.23,0,0,0,0.00
2013-2-27,51.0,46.2,43.0,51.0,45.8,41.0,100,99,92,30.29,30.21,0,0,0,0.00
2013-2-28,56.0,51.5,48.0,56.0,51.5,48.0,100,100,100,30.45,30.20,0,0,0,0.00
2013-3-1,59.0,53.1,51.0,57.0,52.9,51.0,100,99,92,30.47,30.33,0,0,0,0.00
2013-3-2,54.0,49.6,42.0,53.0,49.4,42.0,100,99,94,30.33,30.20,0,0,0,0.00
2013-3-3,48.0,42.1,37.0,43.0,39.1,37.0,100,90,70,30.30,30.19,0,0,0,0.00
2013-3-4,51.0,42.5,35.0,46.0,39.2,33.0,100,89,64,30.19,29.88,0,0,0,0.00
2013-3-5,47.0,43.1,41.0,45.0,42.1,33.0,100,96,63,29.88,29.60,0,0,0,0.00
2013-3-6,46.0,43.1,40.0,46.0,43.1,40.0,100,100,100,29.94,29.52,0,0,0,0.00
2013-3-7,51.0,42.8,38.0,48.0,42.0,38.0,100,97,81,30.02,29.94,0,0,0,0.00
2013-3-8,56.0,45.5,41.0,49.0,43.1,41.0,100,92,70,30.20,30.00,0,0,0,0.00
2013-3-9,57.0,47.5,39.0,47.0,41.9,36.0,100,83,55,30.49,30.20,0,0,0,0.00
2013-3-10,57.0,50.3,46.0,51.0,43.6,32.0,100,80,54,30.48,30.41,0,0,0,0.00
2013-3-11,56.0,51.1,47.0,55.0,50.9,47.0,100,99,92,30.42,30.26,0,0,0,0.00
2013-3-12,58.0,52.0,48.0,53.0,50.7,48.0,100,96,79,30.26,30.19,0,0,0,0.00
2013-3-13,65.0,52.8,47.0,55.0,49.7,47.0,100,90,66,30.24,30.12,0,0,0,0.00
2013-3-14,58.0,50.0,46.0,52.0,48.7,46.0,100,96,74,30.22,30.06,0,0,0,0.00
2013-3-15,61.0,52.8,48.0,55.0,51.8,48.0,100,97,79,30.25,30.20,0,0,0,0.00
2013-3-16,49.0,46.1,39.0,49.0,46.1,39.0,100,100,100,30.20,30.04,0,0,0,0.00
2013-3-17,46.0,40.0,36.0,46.0,39.8,36.0,100,99,93,30.30,30.17,0,0,0,0.00
2013-3-18,52.0,43.1,37.0,44.0,39.4,37.0,100,88,67,30.28,30.10,0,0,0,0.00
2013-3-19,50.0,44.2,40.0,50.0,43.8,39.0,100,98,88,30.09,29.67,0,0,0,0.00
2013-3-20,51.0,45.3,37.0,51.0,45.3,37.0,100,100,100,30.17,29.57,0,0,0,0.00
2013-3-21,45.0,39.4,36.0,45.0,39.4,36.0,100,100,97,30.32,30.17,0,0,0,0.00
2013-3-22,44.0,38.2,35.0,44.0,38.1,35.0,100,100,94,30.37,30.30,0,0,0,0.00
2013-3-23,49.0,40.6,36.0,41.0,36.2,34.0,100,85,64,30.36,30.24,0,0,0,0.00
2013-3-24,55.0,45.4,39.0,44.0,38.5,33.0,86,77,62,30.24,30.07,0,0,0,0.00
2013-3-25,57.0,47.6,42.0,48.0,41.1,36.0,97,79,63,30.07,29.93,0,0,0,0.00
2013-3-26,52.0,47.5,45.0,51.0,47.4,44.0,100,100,94,30.01,29.95,0,0,0,0.00
2013-3-27,57.0,49.3,45.0,55.0,49.2,45.0,100,100,92,30.00,29.91,0,0,0,0.00
2013-3-28,60.0,51.8,47.0,58.0,51.1,47.0,100,98,85,30.15,29.99,0,0,0,0.00
2013-3-29,64.0,55.4,48.0,56.0,52.4,48.0,100,91,74,30.21,30.15,0,0,0,0.00
2013-3-30,73.0,61.3,52.0,54.0,50.3,-99.9,91,72,48,30.17,29.98,0,0,0,0.00
2013-3-31,70.0,58.0,50.0,57.0,53.3,50.0,100,86,61,30.04,29.98,0,0,0,0.00
2013-4-1,55.0,52.5,50.0,55.0,52.3,50.0,100,100,96,30.20,30.04,0,0,0,0.00
2013-4-2,62.0,53.0,48.0,56.0,51.5,48.0,100,95,77,30.23,30.16,0,0,0,0.00
2013-4-3,64.0,54.6,45.0,56.0,51.8,45.0,100,91,73,30.17,29.93,0,0,0,0.00
2013-4-4,57.0,54.3,51.0,57.0,54.1,51.0,100,99,91,29.93,29.71,0,0,0,0.00
2013-4-5,54.0,51.5,50.0,54.0,51.5,50.0,100,100,100,29.98,29.84,0,0,0,0.00
2013-4-6,55.0,49.3,46.0,54.0,49.0,46.0,100,99,88,30.02,29.70,0,0,0,0.00
2013-4-7,50.0,45.5,41.0,50.0,45.5,41.0,100,100,100,29.98,29.62,0,0,0,0.00
2013-4-8,50.0,44.7,40.0,50.0,44.4,40.0,100,99,88,30.29,29.98,0,0,0,0.00
2013-4-9,60.0,49.8,43.0,52.0,47.4,42.0,100,92,75,30.35,30.25,0,0,0,0.00
2013-4-10,54.0,50.6,45.0,54.0,50.0,45.0,100,98,89,30.35,30.18,0,0,0,0.00
2013-4-11,55.0,47.5,42.0,49.0,45.2,42.0,100,92,73,30.35,30.16,0,0,0,0.00
2013-4-12,56.0,46.9,40.0,50.0,44.8,39.0,100,93,79,30.16,29.90,0,0,0,0.00
2013-4-13,50.0,43.0,39.0,47.0,42.2,39.0,100,97,77,30.12,29.97,0,0,0,0.00
2013-4-14,47.0,42.2,40.0,46.0,42.2,40.0,100,100,95,30.10,29.94,0,0,0,0.00
2013-4-15,49.0,43.3,39.0,47.0,42.6,39.0,100,98,84,30.18,29.95,0,0,0,0.00
2013-4-16,55.0,45.7,42.0,52.0,45.0,42.0,100,98,74,30.40,30.18,0,0,0,0.00
2013-4-17,59.0,47.7,42.0,54.0,46.1,42.0,100,95,67,30.50,30.40,0,0,0,0.00
2013-4-18,60.0,51.1,44.0,51.0,47.5,44.0,100,89,68,30.48,30.35,0,0,0,0.00
2013-4-19,52.0,50.0,48.0,52.0,50.0,48.0,100,100,99,30.35,30.20,0,0,0,0.00
2013-4-20,56.0,49.0,45.0,53.0,48.5,45.0,100,98,87,30.37,30.29,0,0,0,0.00
2013-4-21,53.0,48.7,45.0,51.0,47.9,45.0,100,97,88,30.31,30.26,0,0,0,0.00
2013-4-22,62.0,51.6,42.0,48.0,43.1,38.0,100,76,48,30.38,30.30,0,0,0,0.00
2013-4-23,69.0,55.7,47.0,46.0,40.8,36.0,76,58,40,30.35,30.16,0,0,0,0.00
2013-4-24,74.0,60.5,49.0,42.0,38.1,35.0,68,46,26,30.21,30.04,0,0,0,0.00
2013-4-25,76.0,65.0,53.0,51.0,46.1,38.0,89,52,37,30.17,30.04,0,0,0,0.00
2013-4-26,79.0,64.7,51.0,54.0,47.7,36.0,94,58,29,30.26,30.17,0,0,0,0.00
2013-4-27,69.0,56.1,48.0,51.0,46.1,37.0,99,71,43,30.32,30.24,2,0,11,0.00
2013-4-28,65.0,55.1,51.0,55.0,51.3,49.0,100,88,62,30.30,30.16,4,0,8,0.00
2013-4-29,58.0,50.4,42.0,52.0,46.7,40.0,100,88,61,30.23,30.12,3,0,11,0.00
2013-4-30,57.0,47.0,41.0,45.0,41.2,39.0,96,82,59,30.42,30.22,3,0,11,0.00
2013-5-1,69.0,53.7,40.0,42.0,39.2,34.0,93,63,32,30.48,30.42,6,2,11,0.00
2013-5-2,79.0,63.3,54.0,50.0,41.8,36.0,75,47,25,30.42,30.29,7,2,13,0.00
2013-5-3,79.0,63.2,50.0,55.0,47.6,43.0,86,59,39,30.30,30.14,6,0,13,0.00
2013-5-4,80.0,68.9,59.0,49.0,44.5,41.0,62,43,26,30.14,29.91,7,3,19,0.00
2013-5-5,83.0,70.2,53.0,52.0,44.7,40.0,94,43,26,29.91,29.72,7,2,16,0.00
2013-5-6,73.0,59.4,52.0,57.0,52.7,50.0,98,81,56,29.96,29.84,2,0,9,0.00
2013-5-7,66.0,55.6,51.0,56.0,52.2,50.0,99,89,68,30.07,29.95,4,0,9,0.00
2013-5-8,68.0,56.2,51.0,57.0,52.2,50.0,98,88,66,30.19,30.07,3,0,9,0.00
2013-5-9,76.0,60.5,49.0,61.0,54.3,49.0,100,83,55,30.21,30.14,2,0,9,0.00
2013-5-10,73.0,57.0,50.0,60.0,51.8,-99.9,100,88,62,30.26,30.16,3,0,8,0.00
2013-5-11,81.0,63.2,51.0,63.0,55.5,-99.9,100,81,51,30.24,30.10,3,0,9,0.00
2013-5-12,68.0,60.7,57.0,61.0,58.2,57.0,100,92,73,30.18,30.11,4,0,7,0.00
2013-5-13,63.0,56.4,50.0,58.0,55.5,50.0,100,97,79,30.24,30.08,4,0,13,0.00
2013-5-14,67.0,55.1,46.0,54.0,48.0,44.0,100,80,47,30.23,30.14,3,0,8,0.00
2013-5-15,60.0,53.0,48.0,56.0,50.8,43.0,100,92,77,30.14,30.03,0,0,4,0.00
2013-5-16,60.0,52.0,50.0,56.0,38.4,-99.9,100,96,78,30.03,29.96,0,0,8,0.00
2013-5-17,60.0,53.2,49.0,57.0,47.8,-99.9,100,91,74,30.12,30.01,2,0,9,0.00
2013-5-18,60.0,53.6,50.0,57.0,52.9,49.0,100,98,88,30.29,30.11,0,0,2,0.00
2013-5-19,65.0,55.9,50.0,54.0,51.9,49.0,100,87,65,30.43,30.30,3,0,8,0.00
2013-5-20,71.0,56.8,46.0,56.0,50.0,46.0,100,81,47,30.35,29.97,3,0,9,0.00
2013-5-21,51.0,46.7,42.0,51.0,46.5,42.0,100,100,93,30.01,29.88,2,0,13,0.00
2013-5-22,51.0,46.2,42.0,51.0,46.2,42.0,100,100,100,30.00,29.95,0,0,9,0.00
2013-5-23,54.0,49.1,46.0,54.0,48.9,46.0,100,99,93,30.03,29.98,0,0,6,0.00
2013-5-24,55.0,49.9,46.0,55.0,49.9,46.0,100,100,100,30.11,30.00,0,0,5,0.00
2013-5-25,65.0,54.0,46.0,57.0,50.7,46.0,100,90,66,30.10,29.97,0,0,8,0.00
2013-5-26,56.0,53.0,51.0,56.0,53.0,51.0,100,100,99,30.08,29.96,0,0,4,0.00
2013-5-27,59.0,53.8,51.0,59.0,53.8,51.0,100,100,98,30.00,29.77,3,0,11,0.00
2013-5-28,58.0,53.5,51.0,56.0,52.4,51.0,100,96,81,29.98,29.76,1,0,8,0.00
2013-5-29,57.0,52.0,48.0,57.0,52.0,48.0,100,100,97,30.09,29.65,2,0,15,0.00
2013-5-30,59.0,52.1,48.0,56.0,51.1,48.0,100,96,82,30.28,30.08,0,0,5,0.00
2013-5-31,68.0,56.2,48.0,56.0,51.5,48.0,100,86,57,30.33,30.27,0,0,6,0.00
2013-6-1,73.0,60.8,52.0,57.0,53.0,51.0,98,78,51,30.27,30.09,2,0,10,0.00
2013-6-2,68.0,58.6,53.0,58.0,54.7,52.0,100,88,67,30.13,30.07,1,0,9,0.00
2013-6-3,74.0,59.7,51.0,60.0,54.3,51.0,100,84,58,30.14,30.08,2,0,8,0.00
2013-6-4,81.0,64.9,52.0,59.0,53.6,45.0,100,70,43,30.11,30.05,3,0,7,0.00
2013-6-5,79.0,64.4,54.0,62.0,57.3,53.0,99,80,50,30.14,30.05,0,0,8,0.00
2013-6-6,79.0,61.8,53.0,62.0,56.6,52.0,100,85,55,30.10,30.04,2,0,8,0.00
2013-6-7,78.0,61.9,51.0,61.0,54.3,44.0,99,79,33,30.18,30.09,3,0,7,0.00
2013-6-8,80.0,63.8,53.0,58.0,54.1,50.0,100,74,43,30.18,30.10,1,0,9,0.00
2013-6-9,73.0,59.7,51.0,58.0,52.8,49.0,99,80,54,30.13,30.03,3,0,10,0.00
2013-6-10,68.0,56.3,47.0,53.0,49.3,46.0,98,80,54,30.04,29.97,2,0,10,0.00
2013-6-11,63.0,54.6,50.0,55.0,50.5,48.0,99,87,65,30.18,30.02,2,0,10,0.00
2013-6-12,61.0,53.9,50.0,54.0,51.2,50.0,100,91,74,30.22,30.16,2,0,7,0.00
2013-6-13,58.0,53.6,51.0,58.0,53.5,50.0,100,100,95,30.33,30.19,2,0,8,0.70
2013-6-14,70.0,59.0,50.0,58.0,53.6,50.0,100,84,60,30.32,30.01,3,0,7,0.00
2013-6-15,71.0,61.0,54.0,60.0,55.6,52.0,98,83,65,30.07,29.95,2,0,11,0.00
2013-6-16,71.0,59.5,53.0,59.0,54.7,52.0,99,86,63,30.16,30.07,2,0,8,0.00
2013-6-17,73.0,59.4,52.0,59.0,54.4,52.0,100,85,53,30.15,30.03,2,0,9,0.00
2013-6-18,64.0,55.6,50.0,60.0,54.1,50.0,100,95,74,30.05,29.99,1,0,7,0.00
2013-6-19,61.0,55.0,51.0,59.0,54.1,50.0,100,97,80,30.14,29.98,2,0,9,0.00
2013-6-20,60.0,53.8,51.0,60.0,53.8,51.0,100,100,95,30.15,30.09,2,0,7,0.01
2013-6-21,70.0,68.0,65.0,56.0,55.0,53.0,73,64,59,30.19,30.16,0,0,4,0.00
2013-6-22,78.0,67.5,55.0,60.0,57.0,55.0,99,71,51,30.08,29.91,1,0,6,0.00
2013-6-23,64.0,60.8,58.0,64.0,60.6,55.0,100,99,90,29.91,29.68,0,0,6,0.00
2013-6-24,62.0,57.1,54.0,60.0,56.4,54.0,100,98,84,29.75,29.70,0,0,9,0.00
2013-6-25,64.0,59.1,56.0,64.0,58.5,56.0,100,98,88,29.88,29.70,0,0,9,0.00
2013-6-26,70.0,63.2,57.0,63.0,60.4,57.0,100,91,71,30.07,29.88,1,0,5,0.00
2013-6-27,73.0,66.0,61.0,67.0,62.6,60.0,100,89,76,30.22,30.04,0,0,6,0.00
2013-6-28,83.0,71.6,63.0,70.0,63.8,57.0,99,79,55,30.20,30.15,2,0,8,0.00
2013-6-29,86.0,72.9,62.0,66.0,60.4,55.0,85,66,43,30.16,30.04,1,0,10,0.00
2013-6-30,84.0,73.0,62.0,68.0,63.6,59.0,95,73,57,30.04,29.98,2,0,10,0.00
2013-7-1,82.0,67.6,60.0,69.0,63.4,60.0,100,88,64,30.09,29.98,4,0,9,0.00
2013-7-2,79.0,66.8,59.0,68.0,62.2,59.0,100,87,64,30.14,30.08,2,0,12,0.00
2013-7-3,80.0,63.9,57.0,61.0,57.9,55.0,100,84,53,30.19,30.13,1,0,10,0.00
2013-7-4,74.0,62.6,53.0,60.0,56.0,53.0,100,81,58,30.17,30.09,1,0,10,0.53
2013-7-5,74.0,61.1,54.0,60.0,55.3,52.0,96,83,59,30.10,30.01,2,0,9,0.31
2013-7-6,75.0,61.8,52.0,60.0,56.1,52.0,100,84,59,30.02,29.94,2,0,9,0.04
2013-7-7,74.0,61.6,56.0,61.0,57.4,55.0,99,87,62,30.02,29.96,3,0,9,0.20
2013-7-8,79.0,60.2,55.0,63.0,55.2,-99.9,99,88,58,30.12,30.02,0,0,10,0.00
2013-7-9,82.0,67.5,58.0,65.0,59.9,56.0,97,79,49,30.14,30.08,1,0,9,0.00
2013-7-10,76.0,61.3,53.0,61.0,53.5,-99.9,98,80,58,30.11,30.01,2,0,10,0.00
2013-7-11,74.0,59.4,51.0,57.0,52.6,50.0,96,80,55,30.10,30.01,3,0,10,1.11
2013-7-12,72.0,58.0,51.0,54.0,51.3,49.0,93,80,49,30.12,30.02,4,0,9,2.00
2013-7-13,78.0,61.1,53.0,56.0,49.0,-99.9,91,71,31,30.18,30.09,2,0,8,1.75
2013-7-14,82.0,66.1,56.0,59.0,55.5,50.0,95,71,46,30.12,30.04,2,0,8,1.52
2013-7-15,81.0,63.0,53.0,62.0,54.2,49.0,91,75,51,30.05,29.87,1,0,6,1.54
2013-7-16,73.0,64.1,59.0,63.0,57.6,53.0,94,80,68,30.06,29.79,3,0,8,0.09
2013-7-17,71.0,60.8,55.0,60.0,57.0,54.0,100,88,65,30.22,30.05,2,0,7,0.08
2013-7-18,78.0,60.1,53.0,63.0,55.8,52.0,100,87,59,30.22,30.15,2,0,8,0.04
2013-7-19,74.0,59.6,53.0,61.0,53.6,-99.9,100,88,64,30.17,30.10,2,0,8,0.00
2013-7-20,75.0,59.4,54.0,62.0,55.0,-99.9,100,89,65,30.12,30.01,2,0,15,0.00
2013-7-21,78.0,63.7,52.0,63.0,57.6,52.0,100,83,55,30.02,29.97,3,0,9,0.07
2013-7-22,80.0,62.4,55.0,64.0,58.1,55.0,100,88,55,30.08,29.98,1,0,6,0.00
2013-7-23,86.0,69.9,57.0,66.0,60.9,54.0,94,76,46,30.07,30.03,1,0,9,0.12
2013-7-24,83.0,64.3,53.0,63.0,57.7,53.0,100,82,49,30.09,30.04,1,0,9,0.32
2013-7-25,84.0,65.1,53.0,63.0,56.9,52.0,100,78,45,30.14,30.05,1,0,7,0.00
2013-7-26,76.0,60.8,53.0,58.0,54.7,52.0,97,82,54,30.20,30.09,1,0,8,0.00
2013-7-27,75.0,60.7,52.0,59.0,54.5,51.0,99,82,55,30.22,30.09,3,0,8,0.00
2013-7-28,71.0,59.9,52.0,59.0,55.1,51.0,100,85,64,30.09,30.01,2,0,9,0.00
2013-7-29,70.0,58.8,53.0,58.0,54.9,52.0,98,88,65,30.08,30.01,3,0,7,0.00
2013-7-30,73.0,61.0,54.0,62.0,57.1,53.0,100,88,67,30.18,30.09,1,0,8,0.00
2013-7-31,62.0,58.5,56.0,60.0,57.7,56.0,100,97,91,30.16,30.11,0,0,8,0.00
2013-8-1,60.0,57.8,56.0,60.0,57.6,56.0,100,100,97,30.16,30.10,0,0,0,0.02
2013-8-2,65.0,59.0,55.0,61.0,57.4,55.0,100,95,79,30.17,30.13,1,0,6,0.00
2013-8-3,79.0,64.7,54.0,64.0,59.5,54.0,100,85,58,30.14,30.04,1,0,7,0.00
2013-8-4,79.0,65.2,56.0,65.0,60.0,55.0,100,85,61,30.06,30.00,3,0,9,0.00
2013-8-5,79.0,63.7,55.0,65.0,58.6,55.0,100,85,59,30.07,29.99,1,0,7,0.00
2013-8-6,86.0,68.4,55.0,62.0,56.2,51.0,98,68,36,30.05,29.98,0,0,7,0.00
2013-8-7,63.0,56.8,53.0,60.0,55.6,53.0,100,96,87,30.09,30.01,1,0,7,0.00
2013-8-8,77.0,61.8,54.0,65.0,58.8,54.0,100,91,64,30.09,29.98,0,0,7,0.00
2013-8-9,76.0,63.5,56.0,64.0,59.4,56.0,100,88,63,29.99,29.92,1,0,9,0.00
2013-8-10,62.0,58.6,57.0,60.0,58.3,57.0,100,99,92,30.10,29.97,1,0,5,0.00
2013-8-11,63.0,58.6,56.0,61.0,58.2,56.0,100,99,93,30.10,30.06,0,0,5,0.00
2013-8-21,83.0,69.6,61.0,60.0,55.7,51.0,74,62,46,30.04,29.93,1,0,7,0.00
2013-8-22,69.0,62.6,58.0,61.0,58.6,56.0,99,87,73,29.98,29.92,0,0,6,0.00
2013-8-23,68.0,61.8,58.0,61.0,59.8,58.0,100,93,76,29.99,29.95,2,0,5,0.00
2013-8-24,72.0,61.7,58.0,62.0,55.5,-99.9,100,86,64,29.95,29.92,1,0,6,0.00
2013-8-25,68.0,59.9,56.0,64.0,58.3,55.0,100,95,85,29.96,29.92,0,0,5,0.00
2013-8-26,75.0,60.8,54.0,61.0,57.0,54.0,100,89,54,30.00,29.93,2,0,9,0.00
2013-8-27,73.0,63.7,61.0,67.0,62.7,61.0,100,97,79,29.99,29.91,0,0,6,0.00
2013-10-18,66.0,60.0,53.0,50.0,47.9,45.0,76,65,54,30.15,30.10,0,0,0,0.00
2013-10-19,68.0,60.5,57.0,55.0,45.8,-99.9,83,66,54,30.15,30.12,0,0,0,0.00
2013-10-20,68.0,62.8,57.0,57.0,53.8,51.0,87,73,63,30.15,30.07,0,0,0,0.00
2013-10-21,69.0,64.2,57.0,55.0,52.7,51.0,81,67,56,30.08,30.00,0,0,0,0.00
2013-10-22,72.0,60.8,50.0,58.0,52.8,48.0,100,77,51,30.04,30.00,0,0,0,0.00
2013-10-23,61.0,51.5,46.0,59.0,51.1,46.0,100,99,90,30.02,29.98,0,0,0,0.00
2013-10-24,60.0,51.5,46.0,59.0,51.2,46.0,100,99,92,30.10,30.00,0,0,0,0.00